sensor_id;sensor_type;location;lat;lon;timestamp;P1;durP1;ratioP1;P2;durP2;ratioP2
13228;SDS011;6680;53.220;10.402;2023-05-20T00:00:44;2.23;;;1.63;;
13228;SDS011;6680;53.220;10.402;2023-05-20T00:03:14;1.37;;;1.20;;
13228;SDS011;6680;53.220;10.402;2023-05-20T00:05:41;1.90;;;1.67;;
13228;SDS011;6680;53.220;10.402;2023-05-20T00:08:07;2.50;;;1.20;;
13228;SDS011;6680;53.220;10.402;2023-05-20T00:10:35;1.73;;;1.53;;
13228;SDS011;6680;53.220;10.402;2023-05-20T00:13:02;1.60;;;1.50;;
13228;SDS011;6680;53.220;10.402;2023-05-20T00:15:29;3.40;;;1.30;;
13228;SDS011;6680;53.220;10.402;2023-05-20T00:17:56;1.67;;;1.40;;
13228;SDS011;6680;53.220;10.402;2023-05-20T00:20:24;1.50;;;1.40;;
13228;SDS011;6680;53.220;10.402;2023-05-20T00:22:50;1.60;;;1.50;;
13228;SDS011;6680;53.220;10.402;2023-05-20T00:25:17;1.40;;;1.30;;
13228;SDS011;6680;53.220;10.402;2023-05-20T00:27:44;1.60;;;1.50;;
13228;SDS011;6680;53.220;10.402;2023-05-20T00:30:11;1.90;;;1.60;;
13228;SDS011;6680;53.220;10.402;2023-05-20T00:32:38;1.30;;;1.20;;
13228;SDS011;6680;53.220;10.402;2023-05-20T00:35:05;2.90;;;1.60;;
13228;SDS011;6680;53.220;10.402;2023-05-20T00:37:34;1.80;;;1.53;;
13228;SDS011;6680;53.220;10.402;2023-05-20T00:40:01;2.03;;;1.60;;
13228;SDS011;6680;53.220;10.402;2023-05-20T00:42:28;1.63;;;1.53;;
13228;SDS011;6680;53.220;10.402;2023-05-20T00:44:54;1.40;;;1.30;;
13228;SDS011;6680;53.220;10.402;2023-05-20T00:47:22;1.27;;;1.13;;
13228;SDS011;6680;53.220;10.402;2023-05-20T00:49:53;4.73;;;1.73;;
13228;SDS011;6680;53.220;10.402;2023-05-20T00:52:20;1.30;;;1.20;;
13228;SDS011;6680;53.220;10.402;2023-05-20T00:54:49;1.57;;;1.47;;
13228;SDS011;6680;53.220;10.402;2023-05-20T00:57:17;2.90;;;1.10;;
13228;SDS011;6680;53.220;10.402;2023-05-20T00:59:45;1.30;;;1.30;;
13228;SDS011;6680;53.220;10.402;2023-05-20T01:02:11;1.30;;;1.20;;
13228;SDS011;6680;53.220;10.402;2023-05-20T01:04:39;1.33;;;1.23;;
13228;SDS011;6680;53.220;10.402;2023-05-20T01:07:10;1.27;;;0.90;;
13228;SDS011;6680;53.220;10.402;2023-05-20T01:09:38;1.10;;;1.00;;
13228;SDS011;6680;53.220;10.402;2023-05-20T01:12:08;5.07;;;1.40;;
13228;SDS011;6680;53.220;10.402;2023-05-20T01:14:40;1.63;;;1.20;;
13228;SDS011;6680;53.220;10.402;2023-05-20T01:17:12;1.80;;;1.40;;
13228;SDS011;6680;53.220;10.402;2023-05-20T01:19:42;1.57;;;1.40;;
13228;SDS011;6680;53.220;10.402;2023-05-20T01:22:10;1.30;;;1.20;;
13228;SDS011;6680;53.220;10.402;2023-05-20T01:24:40;1.87;;;1.60;;
13228;SDS011;6680;53.220;10.402;2023-05-20T01:27:07;1.87;;;1.50;;
13228;SDS011;6680;53.220;10.402;2023-05-20T01:29:35;1.40;;;1.30;;
13228;SDS011;6680;53.220;10.402;2023-05-20T01:32:03;1.33;;;1.23;;
13228;SDS011;6680;53.220;10.402;2023-05-20T01:34:31;1.67;;;1.43;;
13228;SDS011;6680;53.220;10.402;2023-05-20T01:37:00;1.43;;;1.33;;
13228;SDS011;6680;53.220;10.402;2023-05-20T01:39:29;2.93;;;1.50;;
13228;SDS011;6680;53.220;10.402;2023-05-20T01:42:00;4.40;;;1.30;;
13228;SDS011;6680;53.220;10.402;2023-05-20T01:44:27;1.77;;;1.47;;
13228;SDS011;6680;53.220;10.402;2023-05-20T01:46:54;2.43;;;1.37;;
13228;SDS011;6680;53.220;10.402;2023-05-20T01:49:20;1.50;;;1.40;;
13228;SDS011;6680;53.220;10.402;2023-05-20T01:51:47;1.43;;;1.33;;
13228;SDS011;6680;53.220;10.402;2023-05-20T01:54:14;1.40;;;1.40;;
13228;SDS011;6680;53.220;10.402;2023-05-20T01:56:40;2.10;;;1.90;;
13228;SDS011;6680;53.220;10.402;2023-05-20T01:59:08;1.50;;;1.40;;
13228;SDS011;6680;53.220;10.402;2023-05-20T02:01:35;2.47;;;1.37;;
13228;SDS011;6680;53.220;10.402;2023-05-20T02:04:01;1.60;;;1.50;;
13228;SDS011;6680;53.220;10.402;2023-05-20T02:06:29;2.27;;;1.60;;
13228;SDS011;6680;53.220;10.402;2023-05-20T02:08:55;1.30;;;1.20;;
13228;SDS011;6680;53.220;10.402;2023-05-20T02:11:22;1.60;;;1.20;;
13228;SDS011;6680;53.220;10.402;2023-05-20T02:13:49;2.00;;;1.20;;
13228;SDS011;6680;53.220;10.402;2023-05-20T02:16:17;2.70;;;1.53;;
13228;SDS011;6680;53.220;10.402;2023-05-20T02:18:44;1.77;;;1.40;;
13228;SDS011;6680;53.220;10.402;2023-05-20T02:21:10;2.57;;;1.80;;
13228;SDS011;6680;53.220;10.402;2023-05-20T02:23:37;1.53;;;1.20;;
13228;SDS011;6680;53.220;10.402;2023-05-20T02:26:04;1.50;;;1.40;;
13228;SDS011;6680;53.220;10.402;2023-05-20T02:28:31;1.97;;;1.60;;
13228;SDS011;6680;53.220;10.402;2023-05-20T02:30:57;2.60;;;1.50;;
13228;SDS011;6680;53.220;10.402;2023-05-20T02:33:25;2.13;;;1.33;;
13228;SDS011;6680;53.220;10.402;2023-05-20T02:35:52;1.37;;;1.27;;
13228;SDS011;6680;53.220;10.402;2023-05-20T02:38:19;1.77;;;1.63;;
13228;SDS011;6680;53.220;10.402;2023-05-20T02:40:46;1.80;;;1.70;;
13228;SDS011;6680;53.220;10.402;2023-05-20T02:43:13;1.80;;;1.70;;
13228;SDS011;6680;53.220;10.402;2023-05-20T02:45:39;1.53;;;1.43;;
13228;SDS011;6680;53.220;10.402;2023-05-20T02:48:06;1.30;;;1.20;;
13228;SDS011;6680;53.220;10.402;2023-05-20T02:50:36;1.20;;;1.10;;
13228;SDS011;6680;53.220;10.402;2023-05-20T02:53:05;1.87;;;1.60;;
13228;SDS011;6680;53.220;10.402;2023-05-20T02:55:32;1.60;;;1.50;;
13228;SDS011;6680;53.220;10.402;2023-05-20T02:57:59;1.70;;;1.43;;
13228;SDS011;6680;53.220;10.402;2023-05-20T03:00:26;1.50;;;1.40;;
13228;SDS011;6680;53.220;10.402;2023-05-20T03:02:55;4.10;;;1.50;;
13228;SDS011;6680;53.220;10.402;2023-05-20T03:05:23;1.33;;;1.23;;
13228;SDS011;6680;53.220;10.402;2023-05-20T03:07:52;1.53;;;1.43;;
13228;SDS011;6680;53.220;10.402;2023-05-20T03:10:19;1.90;;;1.50;;
13228;SDS011;6680;53.220;10.402;2023-05-20T03:12:46;3.37;;;1.93;;
13228;SDS011;6680;53.220;10.402;2023-05-20T03:15:13;1.30;;;1.30;;
13228;SDS011;6680;53.220;10.402;2023-05-20T03:17:39;1.43;;;1.33;;
13228;SDS011;6680;53.220;10.402;2023-05-20T03:20:06;2.77;;;1.50;;
13228;SDS011;6680;53.220;10.402;2023-05-20T03:22:34;1.47;;;1.37;;
13228;SDS011;6680;53.220;10.402;2023-05-20T03:25:02;2.60;;;1.47;;
13228;SDS011;6680;53.220;10.402;2023-05-20T03:27:30;5.20;;;1.27;;
13228;SDS011;6680;53.220;10.402;2023-05-20T03:29:56;2.27;;;1.70;;
13228;SDS011;6680;53.220;10.402;2023-05-20T03:32:23;1.83;;;1.40;;
13228;SDS011;6680;53.220;10.402;2023-05-20T03:34:50;2.07;;;1.33;;
13228;SDS011;6680;53.220;10.402;2023-05-20T03:37:18;1.47;;;1.37;;
13228;SDS011;6680;53.220;10.402;2023-05-20T03:39:45;2.03;;;1.73;;
13228;SDS011;6680;53.220;10.402;2023-05-20T03:42:13;1.23;;;1.13;;
13228;SDS011;6680;53.220;10.402;2023-05-20T03:44:40;1.77;;;1.67;;
13228;SDS011;6680;53.220;10.402;2023-05-20T03:47:06;1.70;;;1.60;;
13228;SDS011;6680;53.220;10.402;2023-05-20T03:49:33;1.60;;;1.50;;
13228;SDS011;6680;53.220;10.402;2023-05-20T03:52:00;2.53;;;1.63;;
13228;SDS011;6680;53.220;10.402;2023-05-20T03:54:27;1.60;;;1.50;;
13228;SDS011;6680;53.220;10.402;2023-05-20T03:56:55;1.50;;;1.40;;
13228;SDS011;6680;53.220;10.402;2023-05-20T03:59:23;2.87;;;1.67;;
13228;SDS011;6680;53.220;10.402;2023-05-20T04:01:51;1.53;;;1.40;;
13228;SDS011;6680;53.220;10.402;2023-05-20T04:04:17;2.80;;;1.70;;
13228;SDS011;6680;53.220;10.402;2023-05-20T04:06:44;3.07;;;1.50;;
13228;SDS011;6680;53.220;10.402;2023-05-20T04:09:11;2.00;;;1.50;;
13228;SDS011;6680;53.220;10.402;2023-05-20T04:11:38;2.00;;;1.30;;
13228;SDS011;6680;53.220;10.402;2023-05-20T04:14:04;1.27;;;1.17;;
13228;SDS011;6680;53.220;10.402;2023-05-20T04:16:32;2.67;;;1.80;;
13228;SDS011;6680;53.220;10.402;2023-05-20T04:19:01;2.20;;;1.87;;
13228;SDS011;6680;53.220;10.402;2023-05-20T04:21:28;1.63;;;1.53;;
13228;SDS011;6680;53.220;10.402;2023-05-20T04:23:55;2.50;;;1.43;;
13228;SDS011;6680;53.220;10.402;2023-05-20T04:26:22;1.50;;;1.40;;
13228;SDS011;6680;53.220;10.402;2023-05-20T04:28:48;2.27;;;1.40;;
13228;SDS011;6680;53.220;10.402;2023-05-20T04:31:15;1.40;;;1.30;;
13228;SDS011;6680;53.220;10.402;2023-05-20T04:33:43;1.67;;;1.57;;
13228;SDS011;6680;53.220;10.402;2023-05-20T04:36:10;1.97;;;1.60;;
13228;SDS011;6680;53.220;10.402;2023-05-20T04:38:40;1.67;;;1.50;;
13228;SDS011;6680;53.220;10.402;2023-05-20T04:41:08;1.53;;;1.43;;
13228;SDS011;6680;53.220;10.402;2023-05-20T04:43:35;1.90;;;1.70;;
13228;SDS011;6680;53.220;10.402;2023-05-20T04:46:04;1.63;;;1.33;;
13228;SDS011;6680;53.220;10.402;2023-05-20T04:48:31;1.83;;;1.73;;
13228;SDS011;6680;53.220;10.402;2023-05-20T04:50:59;2.10;;;1.40;;
13228;SDS011;6680;53.220;10.402;2023-05-20T04:53:26;1.53;;;1.27;;
13228;SDS011;6680;53.220;10.402;2023-05-20T04:55:54;1.90;;;1.70;;
13228;SDS011;6680;53.220;10.402;2023-05-20T04:58:21;2.17;;;1.97;;
13228;SDS011;6680;53.220;10.402;2023-05-20T05:00:49;2.50;;;1.40;;
13228;SDS011;6680;53.220;10.402;2023-05-20T05:03:16;5.00;;;1.93;;
13228;SDS011;6680;53.220;10.402;2023-05-20T05:05:43;1.67;;;1.33;;
13228;SDS011;6680;53.220;10.402;2023-05-20T05:08:11;2.57;;;1.70;;
13228;SDS011;6680;53.220;10.402;2023-05-20T05:10:38;1.80;;;1.67;;
13228;SDS011;6680;53.220;10.402;2023-05-20T05:13:05;1.60;;;1.50;;
13228;SDS011;6680;53.220;10.402;2023-05-20T05:15:32;3.23;;;1.60;;
13228;SDS011;6680;53.220;10.402;2023-05-20T05:17:59;2.87;;;1.67;;
13228;SDS011;6680;53.220;10.402;2023-05-20T05:20:25;1.80;;;1.43;;
13228;SDS011;6680;53.220;10.402;2023-05-20T05:22:52;1.37;;;1.30;;
13228;SDS011;6680;53.220;10.402;2023-05-20T05:25:20;2.17;;;1.60;;
13228;SDS011;6680;53.220;10.402;2023-05-20T05:27:47;2.63;;;1.43;;
13228;SDS011;6680;53.220;10.402;2023-05-20T05:30:14;1.80;;;1.70;;
13228;SDS011;6680;53.220;10.402;2023-05-20T05:32:41;2.00;;;1.80;;
13228;SDS011;6680;53.220;10.402;2023-05-20T05:35:08;1.97;;;1.37;;
13228;SDS011;6680;53.220;10.402;2023-05-20T05:37:35;3.63;;;1.70;;
13228;SDS011;6680;53.220;10.402;2023-05-20T05:40:02;2.00;;;1.80;;
13228;SDS011;6680;53.220;10.402;2023-05-20T05:42:30;2.10;;;1.60;;
13228;SDS011;6680;53.220;10.402;2023-05-20T05:44:57;1.90;;;1.60;;
13228;SDS011;6680;53.220;10.402;2023-05-20T05:47:23;4.20;;;1.47;;
13228;SDS011;6680;53.220;10.402;2023-05-20T05:49:53;1.63;;;1.33;;
13228;SDS011;6680;53.220;10.402;2023-05-20T05:52:20;1.63;;;1.53;;
13228;SDS011;6680;53.220;10.402;2023-05-20T05:54:47;3.73;;;1.73;;
13228;SDS011;6680;53.220;10.402;2023-05-20T05:57:13;3.73;;;1.50;;
13228;SDS011;6680;53.220;10.402;2023-05-20T05:59:41;2.37;;;1.17;;
13228;SDS011;6680;53.220;10.402;2023-05-20T06:02:08;2.67;;;1.60;;
13228;SDS011;6680;53.220;10.402;2023-05-20T06:04:35;2.20;;;1.50;;
13228;SDS011;6680;53.220;10.402;2023-05-20T06:07:01;1.60;;;1.43;;
13228;SDS011;6680;53.220;10.402;2023-05-20T06:09:28;1.83;;;1.57;;
13228;SDS011;6680;53.220;10.402;2023-05-20T06:11:55;3.57;;;2.00;;
13228;SDS011;6680;53.220;10.402;2023-05-20T06:14:22;2.47;;;1.80;;
13228;SDS011;6680;53.220;10.402;2023-05-20T06:16:50;1.80;;;1.70;;
13228;SDS011;6680;53.220;10.402;2023-05-20T06:19:16;2.77;;;1.67;;
13228;SDS011;6680;53.220;10.402;2023-05-20T06:21:43;2.23;;;2.00;;
13228;SDS011;6680;53.220;10.402;2023-05-20T06:24:09;5.90;;;2.37;;
13228;SDS011;6680;53.220;10.402;2023-05-20T06:26:36;2.80;;;1.80;;
13228;SDS011;6680;53.220;10.402;2023-05-20T06:29:03;4.00;;;1.70;;
13228;SDS011;6680;53.220;10.402;2023-05-20T06:31:30;4.87;;;1.60;;
13228;SDS011;6680;53.220;10.402;2023-05-20T06:33:58;2.13;;;1.93;;
13228;SDS011;6680;53.220;10.402;2023-05-20T06:36:26;1.73;;;1.57;;
13228;SDS011;6680;53.220;10.402;2023-05-20T06:38:53;1.57;;;1.47;;
13228;SDS011;6680;53.220;10.402;2023-05-20T06:41:20;2.07;;;1.87;;
13228;SDS011;6680;53.220;10.402;2023-05-20T06:43:46;2.97;;;1.97;;
13228;SDS011;6680;53.220;10.402;2023-05-20T06:46:13;3.47;;;1.60;;
13228;SDS011;6680;53.220;10.402;2023-05-20T06:48:40;2.87;;;2.33;;
13228;SDS011;6680;53.220;10.402;2023-05-20T06:51:08;9.27;;;2.10;;
13228;SDS011;6680;53.220;10.402;2023-05-20T06:53:35;3.17;;;1.87;;
13228;SDS011;6680;53.220;10.402;2023-05-20T06:56:03;3.50;;;2.20;;
13228;SDS011;6680;53.220;10.402;2023-05-20T06:58:31;2.50;;;1.80;;
13228;SDS011;6680;53.220;10.402;2023-05-20T07:00:58;1.63;;;1.50;;
13228;SDS011;6680;53.220;10.402;2023-05-20T07:03:24;2.37;;;2.13;;
13228;SDS011;6680;53.220;10.402;2023-05-20T07:05:51;1.90;;;1.80;;
13228;SDS011;6680;53.220;10.402;2023-05-20T07:08:19;5.70;;;1.90;;
13228;SDS011;6680;53.220;10.402;2023-05-20T07:10:46;1.90;;;1.80;;
13228;SDS011;6680;53.220;10.402;2023-05-20T07:13:12;2.60;;;1.70;;
13228;SDS011;6680;53.220;10.402;2023-05-20T07:15:40;1.73;;;1.50;;
13228;SDS011;6680;53.220;10.402;2023-05-20T07:18:06;3.47;;;1.80;;
13228;SDS011;6680;53.220;10.402;2023-05-20T07:20:33;2.23;;;2.03;;
13228;SDS011;6680;53.220;10.402;2023-05-20T07:23:00;1.77;;;1.63;;
13228;SDS011;6680;53.220;10.402;2023-05-20T07:25:29;1.73;;;1.60;;
13228;SDS011;6680;53.220;10.402;2023-05-20T07:27:56;2.30;;;2.10;;
13228;SDS011;6680;53.220;10.402;2023-05-20T07:30:24;2.53;;;1.70;;
13228;SDS011;6680;53.220;10.402;2023-05-20T07:32:51;1.97;;;1.77;;
13228;SDS011;6680;53.220;10.402;2023-05-20T07:35:17;8.20;;;1.87;;
13228;SDS011;6680;53.220;10.402;2023-05-20T07:37:44;2.67;;;1.60;;
13228;SDS011;6680;53.220;10.402;2023-05-20T07:40:11;2.03;;;1.77;;
13228;SDS011;6680;53.220;10.402;2023-05-20T07:42:40;1.70;;;1.60;;
13228;SDS011;6680;53.220;10.402;2023-05-20T07:45:07;4.47;;;1.90;;
13228;SDS011;6680;53.220;10.402;2023-05-20T07:47:34;1.93;;;1.60;;
13228;SDS011;6680;53.220;10.402;2023-05-20T07:50:01;2.20;;;2.03;;
13228;SDS011;6680;53.220;10.402;2023-05-20T07:52:27;1.80;;;1.70;;
13228;SDS011;6680;53.220;10.402;2023-05-20T07:54:54;3.53;;;1.47;;
13228;SDS011;6680;53.220;10.402;2023-05-20T07:57:21;2.00;;;1.60;;
13228;SDS011;6680;53.220;10.402;2023-05-20T07:59:49;1.87;;;1.77;;
13228;SDS011;6680;53.220;10.402;2023-05-20T08:02:15;1.77;;;1.67;;
13228;SDS011;6680;53.220;10.402;2023-05-20T08:04:42;1.97;;;1.77;;
13228;SDS011;6680;53.220;10.402;2023-05-20T08:07:09;4.63;;;1.90;;
13228;SDS011;6680;53.220;10.402;2023-05-20T08:09:35;3.73;;;2.17;;
13228;SDS011;6680;53.220;10.402;2023-05-20T08:12:02;3.17;;;1.77;;
13228;SDS011;6680;53.220;10.402;2023-05-20T08:14:29;2.33;;;1.73;;
13228;SDS011;6680;53.220;10.402;2023-05-20T08:16:58;2.70;;;1.90;;
13228;SDS011;6680;53.220;10.402;2023-05-20T08:19:25;1.77;;;1.50;;
13228;SDS011;6680;53.220;10.402;2023-05-20T08:21:51;2.20;;;1.90;;
13228;SDS011;6680;53.220;10.402;2023-05-20T08:24:18;4.20;;;1.60;;
13228;SDS011;6680;53.220;10.402;2023-05-20T08:26:45;2.40;;;2.13;;
13228;SDS011;6680;53.220;10.402;2023-05-20T08:29:11;3.20;;;1.87;;
13228;SDS011;6680;53.220;10.402;2023-05-20T08:31:38;2.13;;;1.93;;
13228;SDS011;6680;53.220;10.402;2023-05-20T08:34:06;3.87;;;1.80;;
13228;SDS011;6680;53.220;10.402;2023-05-20T08:36:33;3.93;;;1.60;;
13228;SDS011;6680;53.220;10.402;2023-05-20T08:38:59;3.97;;;1.90;;
13228;SDS011;6680;53.220;10.402;2023-05-20T08:41:26;2.30;;;1.67;;
13228;SDS011;6680;53.220;10.402;2023-05-20T08:43:53;4.40;;;1.67;;
13228;SDS011;6680;53.220;10.402;2023-05-20T08:46:22;1.70;;;1.60;;
13228;SDS011;6680;53.220;10.402;2023-05-20T08:48:48;1.60;;;1.50;;
13228;SDS011;6680;53.220;10.402;2023-05-20T08:51:17;2.20;;;1.93;;
13228;SDS011;6680;53.220;10.402;2023-05-20T08:53:47;2.03;;;1.50;;
13228;SDS011;6680;53.220;10.402;2023-05-20T08:56:14;1.70;;;1.60;;
13228;SDS011;6680;53.220;10.402;2023-05-20T08:58:42;2.10;;;1.93;;
13228;SDS011;6680;53.220;10.402;2023-05-20T09:01:10;1.80;;;1.70;;
13228;SDS011;6680;53.220;10.402;2023-05-20T09:03:37;3.37;;;2.00;;
13228;SDS011;6680;53.220;10.402;2023-05-20T09:06:04;1.90;;;1.80;;
13228;SDS011;6680;53.220;10.402;2023-05-20T09:08:33;2.57;;;1.87;;
13228;SDS011;6680;53.220;10.402;2023-05-20T09:11:00;1.50;;;1.40;;
13228;SDS011;6680;53.220;10.402;2023-05-20T09:13:28;2.30;;;2.03;;
13228;SDS011;6680;53.220;10.402;2023-05-20T09:15:56;6.43;;;1.90;;
13228;SDS011;6680;53.220;10.402;2023-05-20T09:18:25;2.23;;;2.03;;
13228;SDS011;6680;53.220;10.402;2023-05-20T09:20:51;2.00;;;1.90;;
13228;SDS011;6680;53.220;10.402;2023-05-20T09:23:18;1.60;;;1.50;;
13228;SDS011;6680;53.220;10.402;2023-05-20T09:25:47;1.90;;;1.70;;
13228;SDS011;6680;53.220;10.402;2023-05-20T09:28:15;1.90;;;1.57;;
13228;SDS011;6680;53.220;10.402;2023-05-20T09:30:43;3.60;;;1.93;;
13228;SDS011;6680;53.220;10.402;2023-05-20T09:33:10;1.90;;;1.80;;
13228;SDS011;6680;53.220;10.402;2023-05-20T09:35:37;1.87;;;1.73;;
13228;SDS011;6680;53.220;10.402;2023-05-20T09:38:05;1.83;;;1.60;;
13228;SDS011;6680;53.220;10.402;2023-05-20T09:40:32;3.30;;;1.90;;
13228;SDS011;6680;53.220;10.402;2023-05-20T09:43:03;2.50;;;1.83;;
13228;SDS011;6680;53.220;10.402;2023-05-20T09:45:31;2.23;;;1.60;;
13228;SDS011;6680;53.220;10.402;2023-05-20T09:47:58;3.33;;;1.93;;
13228;SDS011;6680;53.220;10.402;2023-05-20T09:50:26;1.67;;;1.57;;
13228;SDS011;6680;53.220;10.402;2023-05-20T09:52:54;1.50;;;1.40;;
13228;SDS011;6680;53.220;10.402;2023-05-20T09:55:22;1.67;;;1.57;;
13228;SDS011;6680;53.220;10.402;2023-05-20T09:57:50;2.60;;;2.17;;
13228;SDS011;6680;53.220;10.402;2023-05-20T10:00:19;1.80;;;1.70;;
13228;SDS011;6680;53.220;10.402;2023-05-20T10:02:46;1.77;;;1.60;;
13228;SDS011;6680;53.220;10.402;2023-05-20T10:05:15;1.90;;;1.80;;
13228;SDS011;6680;53.220;10.402;2023-05-20T10:07:57;2.07;;;1.90;;
13228;SDS011;6680;53.220;10.402;2023-05-20T10:10:49;1.97;;;1.83;;
13228;SDS011;6680;53.220;10.402;2023-05-20T10:13:25;2.83;;;1.87;;
13228;SDS011;6680;53.220;10.402;2023-05-20T10:16:13;2.13;;;1.93;;
13228;SDS011;6680;53.220;10.402;2023-05-20T10:18:49;1.80;;;1.70;;
13228;SDS011;6680;53.220;10.402;2023-05-20T10:21:23;3.10;;;1.73;;
13228;SDS011;6680;53.220;10.402;2023-05-20T10:23:50;3.00;;;1.63;;
13228;SDS011;6680;53.220;10.402;2023-05-20T10:26:17;2.43;;;1.73;;
13228;SDS011;6680;53.220;10.402;2023-05-20T10:28:45;1.83;;;1.53;;
13228;SDS011;6680;53.220;10.402;2023-05-20T10:31:17;2.33;;;1.60;;
13228;SDS011;6680;53.220;10.402;2023-05-20T10:33:46;1.97;;;1.83;;
13228;SDS011;6680;53.220;10.402;2023-05-20T10:36:22;2.37;;;1.67;;
13228;SDS011;6680;53.220;10.402;2023-05-20T10:38:52;2.50;;;2.00;;
13228;SDS011;6680;53.220;10.402;2023-05-20T10:41:19;1.90;;;1.60;;
13228;SDS011;6680;53.220;10.402;2023-05-20T10:43:57;2.57;;;2.00;;
13228;SDS011;6680;53.220;10.402;2023-05-20T10:46:27;4.53;;;2.20;;
13228;SDS011;6680;53.220;10.402;2023-05-20T10:48:53;2.43;;;2.03;;
13228;SDS011;6680;53.220;10.402;2023-05-20T10:51:20;1.93;;;1.80;;
13228;SDS011;6680;53.220;10.402;2023-05-20T10:53:47;2.17;;;1.70;;
13228;SDS011;6680;53.220;10.402;2023-05-20T10:56:18;2.17;;;1.97;;
13228;SDS011;6680;53.220;10.402;2023-05-20T10:58:47;2.03;;;1.60;;
13228;SDS011;6680;53.220;10.402;2023-05-20T11:01:14;2.67;;;1.70;;
13228;SDS011;6680;53.220;10.402;2023-05-20T11:03:44;2.10;;;1.90;;
13228;SDS011;6680;53.220;10.402;2023-05-20T11:06:12;4.00;;;2.17;;
13228;SDS011;6680;53.220;10.402;2023-05-20T11:08:39;2.30;;;2.03;;
13228;SDS011;6680;53.220;10.402;2023-05-20T11:11:05;2.40;;;1.93;;
13228;SDS011;6680;53.220;10.402;2023-05-20T11:13:32;1.90;;;1.80;;
13228;SDS011;6680;53.220;10.402;2023-05-20T11:15:59;1.50;;;1.40;;
13228;SDS011;6680;53.220;10.402;2023-05-20T11:18:27;1.70;;;1.60;;
13228;SDS011;6680;53.220;10.402;2023-05-20T11:20:57;2.13;;;1.93;;
13228;SDS011;6680;53.220;10.402;2023-05-20T11:23:25;2.10;;;1.90;;
13228;SDS011;6680;53.220;10.402;2023-05-20T11:25:53;2.73;;;1.90;;
13228;SDS011;6680;53.220;10.402;2023-05-20T11:28:21;1.60;;;1.50;;
13228;SDS011;6680;53.220;10.402;2023-05-20T11:30:49;2.47;;;1.67;;
13228;SDS011;6680;53.220;10.402;2023-05-20T11:33:17;3.33;;;2.67;;
13228;SDS011;6680;53.220;10.402;2023-05-20T11:35:44;2.73;;;1.93;;
13228;SDS011;6680;53.220;10.402;2023-05-20T11:38:13;2.37;;;1.80;;
13228;SDS011;6680;53.220;10.402;2023-05-20T11:40:42;2.20;;;1.90;;
13228;SDS011;6680;53.220;10.402;2023-05-20T11:43:10;2.13;;;1.93;;
13228;SDS011;6680;53.220;10.402;2023-05-20T11:45:38;3.53;;;2.10;;
13228;SDS011;6680;53.220;10.402;2023-05-20T11:48:06;3.70;;;2.30;;
13228;SDS011;6680;53.220;10.402;2023-05-20T11:50:34;2.67;;;2.17;;
13228;SDS011;6680;53.220;10.402;2023-05-20T11:53:03;3.17;;;2.33;;
13228;SDS011;6680;53.220;10.402;2023-05-20T11:55:32;2.17;;;1.97;;
13228;SDS011;6680;53.220;10.402;2023-05-20T11:57:59;4.37;;;2.10;;
13228;SDS011;6680;53.220;10.402;2023-05-20T12:00:28;2.30;;;2.10;;
13228;SDS011;6680;53.220;10.402;2023-05-20T12:02:55;2.63;;;2.43;;
13228;SDS011;6680;53.220;10.402;2023-05-20T12:05:21;2.70;;;2.40;;
13228;SDS011;6680;53.220;10.402;2023-05-20T12:07:48;3.70;;;2.57;;
13228;SDS011;6680;53.220;10.402;2023-05-20T12:10:15;5.63;;;3.07;;
13228;SDS011;6680;53.220;10.402;2023-05-20T12:12:43;2.63;;;2.00;;
13228;SDS011;6680;53.220;10.402;2023-05-20T12:15:10;3.83;;;2.47;;
13228;SDS011;6680;53.220;10.402;2023-05-20T12:17:44;2.43;;;2.17;;
13228;SDS011;6680;53.220;10.402;2023-05-20T12:20:13;2.53;;;2.30;;
13228;SDS011;6680;53.220;10.402;2023-05-20T12:22:41;3.83;;;2.57;;
13228;SDS011;6680;53.220;10.402;2023-05-20T12:25:09;3.30;;;2.30;;
13228;SDS011;6680;53.220;10.402;2023-05-20T12:27:37;3.10;;;2.27;;
13228;SDS011;6680;53.220;10.402;2023-05-20T12:30:05;3.00;;;2.50;;
13228;SDS011;6680;53.220;10.402;2023-05-20T12:32:33;2.70;;;2.20;;
13228;SDS011;6680;53.220;10.402;2023-05-20T12:35:00;3.00;;;2.63;;
13228;SDS011;6680;53.220;10.402;2023-05-20T12:37:27;2.73;;;2.50;;
13228;SDS011;6680;53.220;10.402;2023-05-20T12:39:54;3.13;;;2.60;;
13228;SDS011;6680;53.220;10.402;2023-05-20T12:42:21;3.77;;;3.07;;
13228;SDS011;6680;53.220;10.402;2023-05-20T12:44:47;3.23;;;2.93;;
13228;SDS011;6680;53.220;10.402;2023-05-20T12:47:15;2.83;;;2.60;;
13228;SDS011;6680;53.220;10.402;2023-05-20T12:49:42;2.73;;;2.30;;
13228;SDS011;6680;53.220;10.402;2023-05-20T12:52:08;7.37;;;2.87;;
13228;SDS011;6680;53.220;10.402;2023-05-20T12:54:35;5.70;;;2.57;;
13228;SDS011;6680;53.220;10.402;2023-05-20T12:57:02;5.33;;;2.50;;
13228;SDS011;6680;53.220;10.402;2023-05-20T12:59:29;3.33;;;3.03;;
13228;SDS011;6680;53.220;10.402;2023-05-20T13:01:55;4.53;;;3.10;;
13228;SDS011;6680;53.220;10.402;2023-05-20T13:04:24;3.30;;;2.47;;
13228;SDS011;6680;53.220;10.402;2023-05-20T13:06:50;2.87;;;2.53;;
13228;SDS011;6680;53.220;10.402;2023-05-20T13:09:17;3.47;;;2.20;;
13228;SDS011;6680;53.220;10.402;2023-05-20T13:11:44;2.70;;;2.47;;
13228;SDS011;6680;53.220;10.402;2023-05-20T13:14:10;4.50;;;2.83;;
13228;SDS011;6680;53.220;10.402;2023-05-20T13:16:37;3.57;;;2.67;;
13228;SDS011;6680;53.220;10.402;2023-05-20T13:19:04;2.80;;;2.33;;
13228;SDS011;6680;53.220;10.402;2023-05-20T13:21:32;5.70;;;2.80;;
13228;SDS011;6680;53.220;10.402;2023-05-20T13:23:59;3.10;;;2.63;;
13228;SDS011;6680;53.220;10.402;2023-05-20T13:26:26;3.10;;;2.50;;
13228;SDS011;6680;53.220;10.402;2023-05-20T13:28:52;4.07;;;2.93;;
13228;SDS011;6680;53.220;10.402;2023-05-20T13:31:19;3.83;;;3.23;;
13228;SDS011;6680;53.220;10.402;2023-05-20T13:33:46;2.57;;;2.33;;
13228;SDS011;6680;53.220;10.402;2023-05-20T13:36:12;4.67;;;3.00;;
13228;SDS011;6680;53.220;10.402;2023-05-20T13:38:40;3.33;;;2.87;;
13228;SDS011;6680;53.220;10.402;2023-05-20T13:41:07;2.50;;;2.30;;
13228;SDS011;6680;53.220;10.402;2023-05-20T13:43:34;2.57;;;2.20;;
13228;SDS011;6680;53.220;10.402;2023-05-20T13:46:01;3.37;;;2.83;;
13228;SDS011;6680;53.220;10.402;2023-05-20T13:48:27;5.77;;;2.77;;
13228;SDS011;6680;53.220;10.402;2023-05-20T13:50:54;2.90;;;2.50;;
13228;SDS011;6680;53.220;10.402;2023-05-20T13:53:21;2.47;;;2.27;;
13228;SDS011;6680;53.220;10.402;2023-05-20T13:55:49;3.13;;;2.83;;
13228;SDS011;6680;53.220;10.402;2023-05-20T13:58:15;2.33;;;2.13;;
13228;SDS011;6680;53.220;10.402;2023-05-20T14:00:42;4.50;;;2.63;;
13228;SDS011;6680;53.220;10.402;2023-05-20T14:03:09;3.50;;;3.07;;
13228;SDS011;6680;53.220;10.402;2023-05-20T14:05:36;3.20;;;2.57;;
13228;SDS011;6680;53.220;10.402;2023-05-20T14:08:04;2.43;;;2.00;;
13228;SDS011;6680;53.220;10.402;2023-05-20T14:10:31;3.47;;;2.80;;
13228;SDS011;6680;53.220;10.402;2023-05-20T14:12:59;2.40;;;2.03;;
13228;SDS011;6680;53.220;10.402;2023-05-20T14:15:26;3.17;;;2.63;;
13228;SDS011;6680;53.220;10.402;2023-05-20T14:17:54;2.50;;;2.30;;
13228;SDS011;6680;53.220;10.402;2023-05-20T14:20:21;3.83;;;2.33;;
13228;SDS011;6680;53.220;10.402;2023-05-20T14:22:48;3.13;;;2.33;;
13228;SDS011;6680;53.220;10.402;2023-05-20T14:25:15;2.70;;;2.37;;
13228;SDS011;6680;53.220;10.402;2023-05-20T14:27:42;3.63;;;2.73;;
13228;SDS011;6680;53.220;10.402;2023-05-20T14:30:10;2.63;;;2.43;;
13228;SDS011;6680;53.220;10.402;2023-05-20T14:32:37;2.40;;;2.20;;
13228;SDS011;6680;53.220;10.402;2023-05-20T14:35:05;2.40;;;2.20;;
13228;SDS011;6680;53.220;10.402;2023-05-20T14:37:32;3.10;;;1.90;;
13228;SDS011;6680;53.220;10.402;2023-05-20T14:39:59;2.73;;;2.30;;
13228;SDS011;6680;53.220;10.402;2023-05-20T14:42:26;2.67;;;2.43;;
13228;SDS011;6680;53.220;10.402;2023-05-20T14:44:52;3.37;;;2.10;;
13228;SDS011;6680;53.220;10.402;2023-05-20T14:47:20;2.67;;;2.13;;
13228;SDS011;6680;53.220;10.402;2023-05-20T14:49:47;2.50;;;2.20;;